Alamo, North Dakota
Current Conditions -  °F | °C
As of 9:55 AM on Thursday 23 Oct 2014 (Local Time) from KD50 Reporting Station
Unknown Precip Unknown Precip  
Wind Chill: 33°   Ceiling: Unl
Heat Index: 41°   Visibility: 10mi
Dew Point: 36°   Wind: 16mph
Humidity: 81%   Direction: 200°SSW
Pressure: 29.81"   Gusts: NA
Location:  48.58°N, 103.47°W
Report Text: KD50 231455Z AUTO 20014KT 10SM UP CLR 05/02 A2981 RMK AO2
Loading
Personal Weather Stations






























Interactive Weather Map
Tropical Storm Tracking
New forecast layout! Learn more

10-Day Weather Forecast

Advertisements
Track Severe Weather on mobile